sensor_id;sensor_type;location;lat;lon;timestamp;temperature;humidity
7572;DHT22;3827;49.928;8.548;2022-11-15T00:01:34;9.50;99.90
7572;DHT22;3827;49.928;8.548;2022-11-15T00:04:02;9.50;99.90
7572;DHT22;3827;49.928;8.548;2022-11-15T00:06:31;9.50;99.90
7572;DHT22;3827;49.928;8.548;2022-11-15T00:08:58;11.40;99.90
7572;DHT22;3827;49.928;8.548;2022-11-15T00:11:26;9.50;99.90
7572;DHT22;3827;49.928;8.548;2022-11-15T00:13:55;9.60;99.90
7572;DHT22;3827;49.928;8.548;2022-11-15T00:16:22;9.60;99.90
7572;DHT22;3827;49.928;8.548;2022-11-15T00:18:50;9.70;99.90
7572;DHT22;3827;49.928;8.548;2022-11-15T00:21:17;9.70;99.90
7572;DHT22;3827;49.928;8.548;2022-11-15T00:23:45;9.70;99.90
7572;DHT22;3827;49.928;8.548;2022-11-15T00:26:14;9.70;99.90
7572;DHT22;3827;49.928;8.548;2022-11-15T00:28:41;9.70;99.90
7572;DHT22;3827;49.928;8.548;2022-11-15T00:31:11;9.70;99.90
7572;DHT22;3827;49.928;8.548;2022-11-15T00:33:38;9.70;99.90
7572;DHT22;3827;49.928;8.548;2022-11-15T00:36:08;9.80;99.90
7572;DHT22;3827;49.928;8.548;2022-11-15T00:38:38;9.80;99.90
7572;DHT22;3827;49.928;8.548;2022-11-15T00:41:07;9.80;99.90
7572;DHT22;3827;49.928;8.548;2022-11-15T00:43:34;9.80;99.90
7572;DHT22;3827;49.928;8.548;2022-11-15T00:46:01;9.80;99.90
7572;DHT22;3827;49.928;8.548;2022-11-15T00:48:29;9.80;99.90
7572;DHT22;3827;49.928;8.548;2022-11-15T00:50:57;9.80;99.90
7572;DHT22;3827;49.928;8.548;2022-11-15T00:53:24;9.70;99.90
7572;DHT22;3827;49.928;8.548;2022-11-15T00:55:51;9.70;99.90
7572;DHT22;3827;49.928;8.548;2022-11-15T00:58:19;9.60;99.90
7572;DHT22;3827;49.928;8.548;2022-11-15T01:00:46;9.60;99.90
7572;DHT22;3827;49.928;8.548;2022-11-15T01:03:13;9.60;99.90
7572;DHT22;3827;49.928;8.548;2022-11-15T01:05:40;9.60;99.90
7572;DHT22;3827;49.928;8.548;2022-11-15T01:08:12;9.50;99.90
7572;DHT22;3827;49.928;8.548;2022-11-15T01:10:39;9.50;99.90
7572;DHT22;3827;49.928;8.548;2022-11-15T01:13:06;9.40;99.90
7572;DHT22;3827;49.928;8.548;2022-11-15T01:15:38;9.40;99.90
7572;DHT22;3827;49.928;8.548;2022-11-15T01:18:05;9.40;99.90
7572;DHT22;3827;49.928;8.548;2022-11-15T01:20:32;9.50;99.90
7572;DHT22;3827;49.928;8.548;2022-11-15T01:22:59;9.30;99.90
7572;DHT22;3827;49.928;8.548;2022-11-15T01:25:26;9.40;99.90
7572;DHT22;3827;49.928;8.548;2022-11-15T01:27:52;9.30;99.90
7572;DHT22;3827;49.928;8.548;2022-11-15T01:30:19;9.30;99.90
7572;DHT22;3827;49.928;8.548;2022-11-15T01:32:48;9.50;99.90
7572;DHT22;3827;49.928;8.548;2022-11-15T01:35:15;9.30;99.90
7572;DHT22;3827;49.928;8.548;2022-11-15T01:37:41;9.30;99.90
7572;DHT22;3827;49.928;8.548;2022-11-15T01:40:09;9.30;99.90
7572;DHT22;3827;49.928;8.548;2022-11-15T01:42:36;9.30;99.90
7572;DHT22;3827;49.928;8.548;2022-11-15T01:45:04;9.40;99.90
7572;DHT22;3827;49.928;8.548;2022-11-15T01:47:34;9.40;99.90
7572;DHT22;3827;49.928;8.548;2022-11-15T01:50:06;9.40;99.90
7572;DHT22;3827;49.928;8.548;2022-11-15T01:52:35;9.50;99.90
7572;DHT22;3827;49.928;8.548;2022-11-15T01:55:06;9.50;99.90
7572;DHT22;3827;49.928;8.548;2022-11-15T01:57:35;9.50;99.90
7572;DHT22;3827;49.928;8.548;2022-11-15T02:00:04;9.50;99.90
7572;DHT22;3827;49.928;8.548;2022-11-15T02:02:32;9.40;99.90
7572;DHT22;3827;49.928;8.548;2022-11-15T02:04:59;9.60;99.90
7572;DHT22;3827;49.928;8.548;2022-11-15T02:07:28;9.40;99.90
7572;DHT22;3827;49.928;8.548;2022-11-15T02:09:58;9.50;99.90
7572;DHT22;3827;49.928;8.548;2022-11-15T02:12:26;9.50;99.90
7572;DHT22;3827;49.928;8.548;2022-11-15T02:14:54;9.60;99.90
7572;DHT22;3827;49.928;8.548;2022-11-15T02:17:31;9.60;99.90
7572;DHT22;3827;49.928;8.548;2022-11-15T02:20:39;9.60;99.90
7572;DHT22;3827;49.928;8.548;2022-11-15T02:29:34;9.40;99.90
7572;DHT22;3827;49.928;8.548;2022-11-15T02:32:09;9.30;99.90
7572;DHT22;3827;49.928;8.548;2022-11-15T02:34:46;9.20;99.90
7572;DHT22;3827;49.928;8.548;2022-11-15T02:37:20;9.10;99.90
7572;DHT22;3827;49.928;8.548;2022-11-15T02:39:51;9.00;99.90
7572;DHT22;3827;49.928;8.548;2022-11-15T02:42:23;9.00;99.90
7572;DHT22;3827;49.928;8.548;2022-11-15T02:45:16;8.90;99.90
7572;DHT22;3827;49.928;8.548;2022-11-15T02:47:47;8.70;99.90
7572;DHT22;3827;49.928;8.548;2022-11-15T02:50:18;8.60;99.90
7572;DHT22;3827;49.928;8.548;2022-11-15T02:52:46;8.50;99.90
7572;DHT22;3827;49.928;8.548;2022-11-15T02:55:28;8.40;99.90
7572;DHT22;3827;49.928;8.548;2022-11-15T02:58:13;8.40;99.90
7572;DHT22;3827;49.928;8.548;2022-11-15T03:00:47;8.50;99.90
7572;DHT22;3827;49.928;8.548;2022-11-15T03:03:34;8.60;99.90
7572;DHT22;3827;49.928;8.548;2022-11-15T03:06:13;8.80;99.90
7572;DHT22;3827;49.928;8.548;2022-11-15T03:08:49;8.90;99.90
7572;DHT22;3827;49.928;8.548;2022-11-15T03:11:21;8.90;99.90
7572;DHT22;3827;49.928;8.548;2022-11-15T03:13:54;9.00;99.90
7572;DHT22;3827;49.928;8.548;2022-11-15T03:16:29;9.00;99.90
7572;DHT22;3827;49.928;8.548;2022-11-15T03:19:02;9.00;99.90
7572;DHT22;3827;49.928;8.548;2022-11-15T03:21:31;9.00;99.90
7572;DHT22;3827;49.928;8.548;2022-11-15T03:24:03;9.00;99.90
7572;DHT22;3827;49.928;8.548;2022-11-15T03:26:33;9.00;99.90
7572;DHT22;3827;49.928;8.548;2022-11-15T03:29:03;9.00;99.90
7572;DHT22;3827;49.928;8.548;2022-11-15T03:31:34;9.00;99.90
7572;DHT22;3827;49.928;8.548;2022-11-15T03:34:21;9.10;99.90
7572;DHT22;3827;49.928;8.548;2022-11-15T03:36:50;9.10;99.90
7572;DHT22;3827;49.928;8.548;2022-11-15T03:39:18;9.10;99.90
7572;DHT22;3827;49.928;8.548;2022-11-15T03:41:50;9.10;99.90
7572;DHT22;3827;49.928;8.548;2022-11-15T03:44:29;9.00;99.90
7572;DHT22;3827;49.928;8.548;2022-11-15T03:47:02;9.00;99.90
7572;DHT22;3827;49.928;8.548;2022-11-15T03:49:33;9.00;99.90
7572;DHT22;3827;49.928;8.548;2022-11-15T03:52:02;9.30;99.90
7572;DHT22;3827;49.928;8.548;2022-11-15T03:54:29;9.10;99.90
7572;DHT22;3827;49.928;8.548;2022-11-15T03:56:56;9.10;99.90
7572;DHT22;3827;49.928;8.548;2022-11-15T03:59:23;9.50;99.90
7572;DHT22;3827;49.928;8.548;2022-11-15T04:01:50;9.20;99.90
7572;DHT22;3827;49.928;8.548;2022-11-15T04:04:17;9.20;99.90
7572;DHT22;3827;49.928;8.548;2022-11-15T04:06:45;9.20;99.90
7572;DHT22;3827;49.928;8.548;2022-11-15T04:09:12;9.20;99.90
7572;DHT22;3827;49.928;8.548;2022-11-15T04:11:38;9.20;99.90
7572;DHT22;3827;49.928;8.548;2022-11-15T04:14:05;9.20;99.90
7572;DHT22;3827;49.928;8.548;2022-11-15T04:16:32;9.30;99.90
7572;DHT22;3827;49.928;8.548;2022-11-15T04:18:59;9.30;99.90
7572;DHT22;3827;49.928;8.548;2022-11-15T04:21:44;9.20;99.90
7572;DHT22;3827;49.928;8.548;2022-11-15T04:24:28;9.20;99.90
7572;DHT22;3827;49.928;8.548;2022-11-15T04:26:55;9.20;99.90
7572;DHT22;3827;49.928;8.548;2022-11-15T04:29:22;9.20;99.90
7572;DHT22;3827;49.928;8.548;2022-11-15T04:32:00;9.20;99.90
7572;DHT22;3827;49.928;8.548;2022-11-15T04:34:27;9.20;99.90
7572;DHT22;3827;49.928;8.548;2022-11-15T04:36:55;9.20;99.90
7572;DHT22;3827;49.928;8.548;2022-11-15T04:39:42;9.20;99.90
7572;DHT22;3827;49.928;8.548;2022-11-15T04:42:10;9.20;99.90
7572;DHT22;3827;49.928;8.548;2022-11-15T04:44:37;9.30;99.90
7572;DHT22;3827;49.928;8.548;2022-11-15T04:47:04;9.20;99.90
7572;DHT22;3827;49.928;8.548;2022-11-15T04:49:31;9.30;99.90
7572;DHT22;3827;49.928;8.548;2022-11-15T04:51:59;9.30;99.90
7572;DHT22;3827;49.928;8.548;2022-11-15T04:54:26;9.40;99.90
7572;DHT22;3827;49.928;8.548;2022-11-15T04:56:53;9.40;99.90
7572;DHT22;3827;49.928;8.548;2022-11-15T04:59:20;9.40;99.90
7572;DHT22;3827;49.928;8.548;2022-11-15T05:01:47;9.40;99.90
7572;DHT22;3827;49.928;8.548;2022-11-15T05:04:13;9.50;99.90
7572;DHT22;3827;49.928;8.548;2022-11-15T05:06:46;9.40;99.90
7572;DHT22;3827;49.928;8.548;2022-11-15T05:09:15;9.50;99.90
7572;DHT22;3827;49.928;8.548;2022-11-15T05:11:42;9.50;99.90
7572;DHT22;3827;49.928;8.548;2022-11-15T05:14:09;9.50;99.90
7572;DHT22;3827;49.928;8.548;2022-11-15T05:16:36;9.50;99.90
7572;DHT22;3827;49.928;8.548;2022-11-15T05:19:04;9.40;99.90
7572;DHT22;3827;49.928;8.548;2022-11-15T05:21:31;9.50;99.90
7572;DHT22;3827;49.928;8.548;2022-11-15T05:23:59;9.50;99.90
7572;DHT22;3827;49.928;8.548;2022-11-15T05:26:27;9.50;99.90
7572;DHT22;3827;49.928;8.548;2022-11-15T05:28:55;9.50;99.90
7572;DHT22;3827;49.928;8.548;2022-11-15T05:31:22;9.50;99.90
7572;DHT22;3827;49.928;8.548;2022-11-15T05:33:50;9.50;99.90
7572;DHT22;3827;49.928;8.548;2022-11-15T05:36:21;9.50;99.90
7572;DHT22;3827;49.928;8.548;2022-11-15T05:38:53;9.50;99.90
7572;DHT22;3827;49.928;8.548;2022-11-15T05:41:24;9.50;99.90
7572;DHT22;3827;49.928;8.548;2022-11-15T05:43:53;9.50;99.90
7572;DHT22;3827;49.928;8.548;2022-11-15T05:46:20;9.50;99.90
7572;DHT22;3827;49.928;8.548;2022-11-15T05:48:49;9.80;99.90
7572;DHT22;3827;49.928;8.548;2022-11-15T05:51:17;9.50;99.90
7572;DHT22;3827;49.928;8.548;2022-11-15T05:53:46;9.50;99.90
7572;DHT22;3827;49.928;8.548;2022-11-15T05:56:14;9.90;99.90
7572;DHT22;3827;49.928;8.548;2022-11-15T05:58:42;9.60;99.90
7572;DHT22;3827;49.928;8.548;2022-11-15T06:01:10;9.60;99.90
7572;DHT22;3827;49.928;8.548;2022-11-15T06:03:37;9.50;99.90
7572;DHT22;3827;49.928;8.548;2022-11-15T06:06:04;9.60;99.90
7572;DHT22;3827;49.928;8.548;2022-11-15T06:08:31;9.50;99.90
7572;DHT22;3827;49.928;8.548;2022-11-15T06:11:03;9.50;99.90
7572;DHT22;3827;49.928;8.548;2022-11-15T06:13:31;9.60;99.90
7572;DHT22;3827;49.928;8.548;2022-11-15T06:15:58;9.50;99.90
7572;DHT22;3827;49.928;8.548;2022-11-15T06:18:26;9.50;99.90
7572;DHT22;3827;49.928;8.548;2022-11-15T06:20:53;9.50;99.90
7572;DHT22;3827;49.928;8.548;2022-11-15T06:23:20;9.60;99.90
7572;DHT22;3827;49.928;8.548;2022-11-15T06:25:47;9.50;99.90
7572;DHT22;3827;49.928;8.548;2022-11-15T06:28:14;9.60;99.90
7572;DHT22;3827;49.928;8.548;2022-11-15T06:30:41;9.50;99.90
7572;DHT22;3827;49.928;8.548;2022-11-15T06:33:08;9.50;99.90
7572;DHT22;3827;49.928;8.548;2022-11-15T06:35:36;9.50;99.90
7572;DHT22;3827;49.928;8.548;2022-11-15T06:38:05;9.40;99.90
7572;DHT22;3827;49.928;8.548;2022-11-15T06:40:33;9.40;99.90
7572;DHT22;3827;49.928;8.548;2022-11-15T06:43:01;9.40;99.90
7572;DHT22;3827;49.928;8.548;2022-11-15T06:45:29;9.40;99.90
7572;DHT22;3827;49.928;8.548;2022-11-15T06:47:55;9.40;99.90
7572;DHT22;3827;49.928;8.548;2022-11-15T06:50:23;9.30;99.90
7572;DHT22;3827;49.928;8.548;2022-11-15T06:52:51;9.30;99.90
7572;DHT22;3827;49.928;8.548;2022-11-15T06:55:18;9.30;99.90
7572;DHT22;3827;49.928;8.548;2022-11-15T06:57:48;9.30;99.90
7572;DHT22;3827;49.928;8.548;2022-11-15T07:00:17;9.30;99.90
7572;DHT22;3827;49.928;8.548;2022-11-15T07:02:45;9.20;99.90
7572;DHT22;3827;49.928;8.548;2022-11-15T07:05:12;9.20;99.90
7572;DHT22;3827;49.928;8.548;2022-11-15T07:07:39;9.20;99.90
7572;DHT22;3827;49.928;8.548;2022-11-15T07:10:09;9.30;99.90
7572;DHT22;3827;49.928;8.548;2022-11-15T07:12:36;9.40;99.90
7572;DHT22;3827;49.928;8.548;2022-11-15T07:15:03;9.50;99.90
7572;DHT22;3827;49.928;8.548;2022-11-15T07:17:30;9.60;99.90
7572;DHT22;3827;49.928;8.548;2022-11-15T07:19:57;9.70;99.90
7572;DHT22;3827;49.928;8.548;2022-11-15T07:22:24;9.80;99.90
7572;DHT22;3827;49.928;8.548;2022-11-15T07:24:51;9.90;99.90
7572;DHT22;3827;49.928;8.548;2022-11-15T07:27:19;10.00;99.90
7572;DHT22;3827;49.928;8.548;2022-11-15T07:29:46;10.00;99.90
7572;DHT22;3827;49.928;8.548;2022-11-15T07:32:13;10.00;99.90
7572;DHT22;3827;49.928;8.548;2022-11-15T07:34:40;10.00;99.90
7572;DHT22;3827;49.928;8.548;2022-11-15T07:37:07;10.00;99.90
7572;DHT22;3827;49.928;8.548;2022-11-15T07:39:34;10.10;99.90
7572;DHT22;3827;49.928;8.548;2022-11-15T07:42:01;10.20;99.90
7572;DHT22;3827;49.928;8.548;2022-11-15T07:44:51;10.30;99.90
7572;DHT22;3827;49.928;8.548;2022-11-15T07:47:18;10.30;99.90
7572;DHT22;3827;49.928;8.548;2022-11-15T07:49:46;10.40;99.90
7572;DHT22;3827;49.928;8.548;2022-11-15T07:52:13;10.30;99.90
7572;DHT22;3827;49.928;8.548;2022-11-15T07:54:40;10.50;99.90
7572;DHT22;3827;49.928;8.548;2022-11-15T07:57:07;10.50;99.90
7572;DHT22;3827;49.928;8.548;2022-11-15T07:59:34;10.60;99.90
7572;DHT22;3827;49.928;8.548;2022-11-15T08:02:03;10.60;99.90
7572;DHT22;3827;49.928;8.548;2022-11-15T08:04:30;10.60;99.90
7572;DHT22;3827;49.928;8.548;2022-11-15T08:06:57;10.60;99.90
7572;DHT22;3827;49.928;8.548;2022-11-15T08:09:24;10.80;99.90
7572;DHT22;3827;49.928;8.548;2022-11-15T08:11:51;10.80;99.90
7572;DHT22;3827;49.928;8.548;2022-11-15T08:14:18;10.80;99.90
7572;DHT22;3827;49.928;8.548;2022-11-15T08:16:46;10.80;99.90
7572;DHT22;3827;49.928;8.548;2022-11-15T08:19:15;10.80;99.90
7572;DHT22;3827;49.928;8.548;2022-11-15T08:21:42;10.90;99.90
7572;DHT22;3827;49.928;8.548;2022-11-15T08:24:09;10.80;99.90
7572;DHT22;3827;49.928;8.548;2022-11-15T08:26:37;10.90;99.90
7572;DHT22;3827;49.928;8.548;2022-11-15T08:29:05;10.90;99.90
7572;DHT22;3827;49.928;8.548;2022-11-15T08:31:33;11.00;99.90
7572;DHT22;3827;49.928;8.548;2022-11-15T08:34:00;11.10;99.90
7572;DHT22;3827;49.928;8.548;2022-11-15T08:36:29;11.10;99.90
7572;DHT22;3827;49.928;8.548;2022-11-15T08:38:56;11.20;99.90
7572;DHT22;3827;49.928;8.548;2022-11-15T08:41:26;11.20;99.90
7572;DHT22;3827;49.928;8.548;2022-11-15T08:43:53;11.20;99.90
7572;DHT22;3827;49.928;8.548;2022-11-15T08:46:20;11.20;99.90
7572;DHT22;3827;49.928;8.548;2022-11-15T08:48:47;11.20;99.90
7572;DHT22;3827;49.928;8.548;2022-11-15T08:51:14;11.20;99.90
7572;DHT22;3827;49.928;8.548;2022-11-15T08:53:43;11.40;99.90
7572;DHT22;3827;49.928;8.548;2022-11-15T08:56:11;11.40;99.90
7572;DHT22;3827;49.928;8.548;2022-11-15T08:58:39;11.50;99.90
7572;DHT22;3827;49.928;8.548;2022-11-15T09:01:06;11.60;99.90
7572;DHT22;3827;49.928;8.548;2022-11-15T09:03:40;11.70;99.90
7572;DHT22;3827;49.928;8.548;2022-11-15T09:06:07;11.70;99.90
7572;DHT22;3827;49.928;8.548;2022-11-15T09:08:34;11.80;99.90
7572;DHT22;3827;49.928;8.548;2022-11-15T09:11:04;11.90;99.90
7572;DHT22;3827;49.928;8.548;2022-11-15T09:13:31;12.00;99.90
7572;DHT22;3827;49.928;8.548;2022-11-15T09:15:58;12.10;99.90
7572;DHT22;3827;49.928;8.548;2022-11-15T09:18:25;12.00;99.90
7572;DHT22;3827;49.928;8.548;2022-11-15T09:20:55;12.00;99.90
7572;DHT22;3827;49.928;8.548;2022-11-15T09:23:22;12.00;99.90
7572;DHT22;3827;49.928;8.548;2022-11-15T09:25:48;12.10;99.90
7572;DHT22;3827;49.928;8.548;2022-11-15T09:28:17;12.00;99.90
7572;DHT22;3827;49.928;8.548;2022-11-15T09:30:44;12.10;99.90
7572;DHT22;3827;49.928;8.548;2022-11-15T09:33:12;12.00;99.90
7572;DHT22;3827;49.928;8.548;2022-11-15T09:35:39;12.10;99.90
7572;DHT22;3827;49.928;8.548;2022-11-15T09:38:06;11.90;99.90
7572;DHT22;3827;49.928;8.548;2022-11-15T09:40:36;11.80;99.90
7572;DHT22;3827;49.928;8.548;2022-11-15T09:43:23;11.80;99.90
7572;DHT22;3827;49.928;8.548;2022-11-15T09:45:58;11.90;99.90
7572;DHT22;3827;49.928;8.548;2022-11-15T09:48:42;11.90;99.90
7572;DHT22;3827;49.928;8.548;2022-11-15T09:51:14;12.00;99.90
7572;DHT22;3827;49.928;8.548;2022-11-15T09:53:47;12.00;99.90
7572;DHT22;3827;49.928;8.548;2022-11-15T09:56:19;12.10;99.90
7572;DHT22;3827;49.928;8.548;2022-11-15T09:58:55;12.20;99.90
7572;DHT22;3827;49.928;8.548;2022-11-15T10:01:36;12.70;99.90
7572;DHT22;3827;49.928;8.548;2022-11-15T10:04:04;12.40;99.90
7572;DHT22;3827;49.928;8.548;2022-11-15T10:06:34;12.80;99.90
7572;DHT22;3827;49.928;8.548;2022-11-15T10:09:05;12.60;99.90
7572;DHT22;3827;49.928;8.548;2022-11-15T10:11:35;12.60;99.90
7572;DHT22;3827;49.928;8.548;2022-11-15T10:14:10;12.60;99.90
7572;DHT22;3827;49.928;8.548;2022-11-15T10:16:57;12.50;99.90
7572;DHT22;3827;49.928;8.548;2022-11-15T10:19:33;12.40;99.90
7572;DHT22;3827;49.928;8.548;2022-11-15T10:22:16;12.30;99.90
7572;DHT22;3827;49.928;8.548;2022-11-15T10:24:45;12.30;99.90
7572;DHT22;3827;49.928;8.548;2022-11-15T10:27:15;12.30;99.90
7572;DHT22;3827;49.928;8.548;2022-11-15T10:29:48;12.20;99.90
7572;DHT22;3827;49.928;8.548;2022-11-15T10:32:17;12.30;99.90
7572;DHT22;3827;49.928;8.548;2022-11-15T10:34:44;12.30;99.90
7572;DHT22;3827;49.928;8.548;2022-11-15T10:37:11;12.30;99.90
7572;DHT22;3827;49.928;8.548;2022-11-15T10:39:39;12.40;99.90
7572;DHT22;3827;49.928;8.548;2022-11-15T10:42:16;12.40;99.90
7572;DHT22;3827;49.928;8.548;2022-11-15T10:44:45;12.30;99.90
7572;DHT22;3827;49.928;8.548;2022-11-15T10:47:33;12.30;99.90
7572;DHT22;3827;49.928;8.548;2022-11-15T10:50:06;12.20;99.90
7572;DHT22;3827;49.928;8.548;2022-11-15T10:52:35;12.10;99.90
7572;DHT22;3827;49.928;8.548;2022-11-15T10:55:12;12.10;99.90
7572;DHT22;3827;49.928;8.548;2022-11-15T10:57:50;12.10;99.90
7572;DHT22;3827;49.928;8.548;2022-11-15T11:00:30;12.00;99.90
7572;DHT22;3827;49.928;8.548;2022-11-15T11:03:00;12.00;99.90
7572;DHT22;3827;49.928;8.548;2022-11-15T11:05:29;12.00;99.90
7572;DHT22;3827;49.928;8.548;2022-11-15T11:07:58;12.10;99.90
7572;DHT22;3827;49.928;8.548;2022-11-15T11:10:27;12.10;99.90
7572;DHT22;3827;49.928;8.548;2022-11-15T11:12:54;12.30;99.90
7572;DHT22;3827;49.928;8.548;2022-11-15T11:15:24;12.40;99.90
7572;DHT22;3827;49.928;8.548;2022-11-15T11:18:04;12.40;99.90
7572;DHT22;3827;49.928;8.548;2022-11-15T11:20:38;12.50;99.90
7572;DHT22;3827;49.928;8.548;2022-11-15T11:26:35;12.90;99.90
7572;DHT22;3827;49.928;8.548;2022-11-15T11:29:17;13.10;99.90
7572;DHT22;3827;49.928;8.548;2022-11-15T11:31:53;13.10;99.90
7572;DHT22;3827;49.928;8.548;2022-11-15T11:34:34;13.10;99.90
7572;DHT22;3827;49.928;8.548;2022-11-15T11:37:12;13.10;99.90
7572;DHT22;3827;49.928;8.548;2022-11-15T11:39:50;13.40;99.90
7572;DHT22;3827;49.928;8.548;2022-11-15T11:42:29;13.20;99.90
7572;DHT22;3827;49.928;8.548;2022-11-15T11:45:04;13.20;99.90
7572;DHT22;3827;49.928;8.548;2022-11-15T11:47:39;13.20;99.90
7572;DHT22;3827;49.928;8.548;2022-11-15T11:50:14;13.30;99.90
7572;DHT22;3827;49.928;8.548;2022-11-15T11:52:48;13.20;99.90
7572;DHT22;3827;49.928;8.548;2022-11-15T11:55:20;13.30;99.90
7572;DHT22;3827;49.928;8.548;2022-11-15T11:57:51;13.50;99.90
7572;DHT22;3827;49.928;8.548;2022-11-15T12:00:21;13.70;99.90
7572;DHT22;3827;49.928;8.548;2022-11-15T12:03:02;13.90;99.90
7572;DHT22;3827;49.928;8.548;2022-11-15T12:05:34;14.00;99.90
7572;DHT22;3827;49.928;8.548;2022-11-15T12:08:14;14.00;99.90
7572;DHT22;3827;49.928;8.548;2022-11-15T12:10:45;14.10;99.90
7572;DHT22;3827;49.928;8.548;2022-11-15T12:13:18;14.00;99.90
7572;DHT22;3827;49.928;8.548;2022-11-15T12:15:53;14.10;99.90
7572;DHT22;3827;49.928;8.548;2022-11-15T12:18:21;14.20;99.90
7572;DHT22;3827;49.928;8.548;2022-11-15T12:20:53;14.10;99.90
7572;DHT22;3827;49.928;8.548;2022-11-15T12:23:24;14.30;99.90
7572;DHT22;3827;49.928;8.548;2022-11-15T12:25:57;14.40;99.90
7572;DHT22;3827;49.928;8.548;2022-11-15T12:28:32;14.30;99.90
7572;DHT22;3827;49.928;8.548;2022-11-15T12:31:04;14.30;99.90
7572;DHT22;3827;49.928;8.548;2022-11-15T12:33:38;14.20;99.90
7572;DHT22;3827;49.928;8.548;2022-11-15T12:36:11;14.20;99.90
7572;DHT22;3827;49.928;8.548;2022-11-15T12:38:56;14.20;99.90
7572;DHT22;3827;49.928;8.548;2022-11-15T12:41:24;14.50;99.90
7572;DHT22;3827;49.928;8.548;2022-11-15T12:43:52;14.10;99.90
7572;DHT22;3827;49.928;8.548;2022-11-15T12:46:22;14.80;99.90
7572;DHT22;3827;49.928;8.548;2022-11-15T12:48:55;14.00;99.90
7572;DHT22;3827;49.928;8.548;2022-11-15T12:55:08;13.80;99.90
7572;DHT22;3827;49.928;8.548;2022-11-15T12:57:51;13.70;99.90
7572;DHT22;3827;49.928;8.548;2022-11-15T13:00:43;13.70;99.90
7572;DHT22;3827;49.928;8.548;2022-11-15T13:03:27;13.70;99.90
7572;DHT22;3827;49.928;8.548;2022-11-15T13:08:42;13.90;99.90
7572;DHT22;3827;49.928;8.548;2022-11-15T13:11:44;13.80;99.90
7572;DHT22;3827;49.928;8.548;2022-11-15T13:17:34;13.60;99.90
7572;DHT22;3827;49.928;8.548;2022-11-15T13:20:23;13.50;99.90
7572;DHT22;3827;49.928;8.548;2022-11-15T13:22:58;13.50;99.90
7572;DHT22;3827;49.928;8.548;2022-11-15T13:25:48;13.60;99.90
7572;DHT22;3827;49.928;8.548;2022-11-15T13:28:24;13.60;99.90
7572;DHT22;3827;49.928;8.548;2022-11-15T13:30:55;13.60;99.90
7572;DHT22;3827;49.928;8.548;2022-11-15T13:33:26;13.50;99.90
7572;DHT22;3827;49.928;8.548;2022-11-15T13:35:56;13.50;99.90
7572;DHT22;3827;49.928;8.548;2022-11-15T13:38:29;13.50;99.90
7572;DHT22;3827;49.928;8.548;2022-11-15T13:40:58;13.50;99.90
7572;DHT22;3827;49.928;8.548;2022-11-15T13:43:32;13.50;99.90
7572;DHT22;3827;49.928;8.548;2022-11-15T13:46:05;13.50;99.90
7572;DHT22;3827;49.928;8.548;2022-11-15T13:48:34;13.50;99.90
7572;DHT22;3827;49.928;8.548;2022-11-15T13:51:04;13.50;99.90
7572;DHT22;3827;49.928;8.548;2022-11-15T13:53:32;13.50;99.90
7572;DHT22;3827;49.928;8.548;2022-11-15T13:56:00;13.60;99.90
7572;DHT22;3827;49.928;8.548;2022-11-15T13:58:29;13.50;99.90
7572;DHT22;3827;49.928;8.548;2022-11-15T14:01:01;13.50;99.90
7572;DHT22;3827;49.928;8.548;2022-11-15T14:03:31;13.40;99.90
7572;DHT22;3827;49.928;8.548;2022-11-15T14:06:11;13.40;99.90
7572;DHT22;3827;49.928;8.548;2022-11-15T14:08:38;13.40;99.90
7572;DHT22;3827;49.928;8.548;2022-11-15T14:11:08;13.40;99.90
7572;DHT22;3827;49.928;8.548;2022-11-15T14:13:36;13.40;99.90
7572;DHT22;3827;49.928;8.548;2022-11-15T14:16:17;13.40;99.90
7572;DHT22;3827;49.928;8.548;2022-11-15T14:18:46;13.40;99.90
7572;DHT22;3827;49.928;8.548;2022-11-15T14:21:15;13.40;99.90
7572;DHT22;3827;49.928;8.548;2022-11-15T14:23:43;13.40;99.90
7572;DHT22;3827;49.928;8.548;2022-11-15T14:26:26;13.40;99.90
7572;DHT22;3827;49.928;8.548;2022-11-15T14:28:53;13.30;99.90
7572;DHT22;3827;49.928;8.548;2022-11-15T14:31:20;13.30;99.90
7572;DHT22;3827;49.928;8.548;2022-11-15T14:33:48;13.30;99.90
7572;DHT22;3827;49.928;8.548;2022-11-15T14:36:18;13.30;99.90
7572;DHT22;3827;49.928;8.548;2022-11-15T14:41:26;13.20;99.90
7572;DHT22;3827;49.928;8.548;2022-11-15T14:43:53;13.20;99.90
7572;DHT22;3827;49.928;8.548;2022-11-15T14:46:20;13.10;99.90
7572;DHT22;3827;49.928;8.548;2022-11-15T14:48:47;13.10;99.90
7572;DHT22;3827;49.928;8.548;2022-11-15T14:51:17;13.00;99.90
7572;DHT22;3827;49.928;8.548;2022-11-15T14:53:45;13.00;99.90
7572;DHT22;3827;49.928;8.548;2022-11-15T14:56:13;13.00;99.90
7572;DHT22;3827;49.928;8.548;2022-11-15T14:58:41;13.00;99.90
7572;DHT22;3827;49.928;8.548;2022-11-15T15:01:13;13.00;99.90
7572;DHT22;3827;49.928;8.548;2022-11-15T15:03:40;12.90;99.90
7572;DHT22;3827;49.928;8.548;2022-11-15T15:06:07;12.90;99.90
7572;DHT22;3827;49.928;8.548;2022-11-15T15:08:36;12.80;99.90
7572;DHT22;3827;49.928;8.548;2022-11-15T15:11:08;12.90;99.90
7572;DHT22;3827;49.928;8.548;2022-11-15T15:13:37;12.80;99.90
7572;DHT22;3827;49.928;8.548;2022-11-15T15:16:04;12.80;99.90
7572;DHT22;3827;49.928;8.548;2022-11-15T15:18:31;12.70;99.90
7572;DHT22;3827;49.928;8.548;2022-11-15T15:20:59;12.70;99.90
7572;DHT22;3827;49.928;8.548;2022-11-15T15:23:32;12.70;99.90
7572;DHT22;3827;49.928;8.548;2022-11-15T15:26:02;12.60;99.90
7572;DHT22;3827;49.928;8.548;2022-11-15T15:28:30;12.50;99.90
7572;DHT22;3827;49.928;8.548;2022-11-15T15:30:56;12.50;99.90
7572;DHT22;3827;49.928;8.548;2022-11-15T15:33:23;12.40;99.90
7572;DHT22;3827;49.928;8.548;2022-11-15T15:35:50;12.40;99.90
7572;DHT22;3827;49.928;8.548;2022-11-15T15:38:17;12.30;99.90
7572;DHT22;3827;49.928;8.548;2022-11-15T15:40:44;12.20;99.90
7572;DHT22;3827;49.928;8.548;2022-11-15T15:43:12;12.10;99.90
7572;DHT22;3827;49.928;8.548;2022-11-15T15:45:40;12.10;99.90
7572;DHT22;3827;49.928;8.548;2022-11-15T15:48:11;12.10;99.90
7572;DHT22;3827;49.928;8.548;2022-11-15T15:50:39;12.10;99.90
7572;DHT22;3827;49.928;8.548;2022-11-15T15:53:06;12.00;99.90
7572;DHT22;3827;49.928;8.548;2022-11-15T15:55:33;12.00;99.90
7572;DHT22;3827;49.928;8.548;2022-11-15T15:58:00;11.90;99.90
7572;DHT22;3827;49.928;8.548;2022-11-15T16:00:29;11.90;99.90
7572;DHT22;3827;49.928;8.548;2022-11-15T16:02:58;11.90;99.90
7572;DHT22;3827;49.928;8.548;2022-11-15T16:05:25;11.90;99.90
7572;DHT22;3827;49.928;8.548;2022-11-15T16:07:52;11.90;99.90
7572;DHT22;3827;49.928;8.548;2022-11-15T16:10:22;11.80;99.90
7572;DHT22;3827;49.928;8.548;2022-11-15T16:12:50;11.80;99.90
7572;DHT22;3827;49.928;8.548;2022-11-15T16:15:18;11.80;99.90
7572;DHT22;3827;49.928;8.548;2022-11-15T16:17:48;11.80;99.90
7572;DHT22;3827;49.928;8.548;2022-11-15T16:20:31;11.70;99.90
7572;DHT22;3827;49.928;8.548;2022-11-15T16:22:58;11.70;99.90
7572;DHT22;3827;49.928;8.548;2022-11-15T16:25:26;11.70;99.90
7572;DHT22;3827;49.928;8.548;2022-11-15T16:27:53;11.70;99.90
7572;DHT22;3827;49.928;8.548;2022-11-15T16:30:22;11.70;99.90
7572;DHT22;3827;49.928;8.548;2022-11-15T16:32:50;11.70;99.90
7572;DHT22;3827;49.928;8.548;2022-11-15T16:35:18;11.60;99.90
7572;DHT22;3827;49.928;8.548;2022-11-15T16:37:45;11.60;99.90
7572;DHT22;3827;49.928;8.548;2022-11-15T16:40:23;11.60;99.90
7572;DHT22;3827;49.928;8.548;2022-11-15T16:42:51;11.50;99.90
7572;DHT22;3827;49.928;8.548;2022-11-15T16:45:18;11.50;99.90
7572;DHT22;3827;49.928;8.548;2022-11-15T16:47:45;11.50;99.90
7572;DHT22;3827;49.928;8.548;2022-11-15T16:50:19;11.40;99.90
7572;DHT22;3827;49.928;8.548;2022-11-15T16:52:52;11.40;99.90